Time;durP1;ratioP1;P1;durP2;ratioP2;P2;SDS_P1;SDS_P2;PMS_P1;PMS_P2;Temp;Humidity;BMP_temperature;BMP_pressure;BME280_temperature;BME280_humidity;BME280_pressure;Samples;Min_cycle;Max_cycle;Signal;HPM_P1;HPM_P2
2023/03/08 00:02:03;;;;;;;6.97;1.40;;;;;;;;;;5022891;28;20430;-81
2023/03/08 00:04:30;;;;;;;3.10;1.10;;;;;;;;;;5020957;28;20422;-80
2023/03/08 00:07:05;;;;;;;4.35;1.50;;;;;;;;;;5021846;28;20426;-80
2023/03/08 00:09:37;;;;;;;6.85;1.35;;;;;;;;;;5020515;28;20471;-80
2023/03/08 00:12:10;;;;;;;8.60;1.48;;;;;;;;;;5037853;28;20430;-81
2023/03/08 00:14:43;;;;;;;6.05;1.20;;;;;;;;;;5027945;28;20428;-80
2023/03/08 00:17:16;;;;;;;9.60;1.80;;;;;;;;;;5027177;28;20415;-81
2023/03/08 00:19:44;;;;;;;5.23;1.40;;;;;;;;;;5023031;28;20435;-80
2023/03/08 00:22:19;;;;;;;8.25;1.30;;;;;;;;;;5041008;28;20454;-81
2023/03/08 00:24:52;;;;;;;5.80;1.50;;;;;;;;;;5022658;28;20917;-81
2023/03/08 00:27:25;;;;;;;5.85;1.23;;;;;;;;;;5020991;28;20452;-81
2023/03/08 00:29:58;;;;;;;6.87;1.50;;;;;;;;;;5039129;28;20443;-80
2023/03/08 00:32:31;;;;;;;6.30;1.30;;;;;;;;;;5025100;28;20421;-80
2023/03/08 00:34:59;;;;;;;6.35;1.30;;;;;;;;;;5025659;28;20454;-81
2023/03/08 00:37:28;;;;;;;6.00;1.80;;;;;;;;;;5024564;28;20434;-80
2023/03/08 00:40:00;;;;;;;6.10;1.63;;;;;;;;;;5036911;28;20426;-80
2023/03/08 00:42:28;;;;;;;5.57;1.45;;;;;;;;;;5028748;28;20430;-80
2023/03/08 00:44:57;;;;;;;8.95;1.77;;;;;;;;;;5019257;28;20423;-81
2023/03/08 00:47:24;;;;;;;6.35;1.67;;;;;;;;;;5025548;28;20424;-81
2023/03/08 00:49:59;;;;;;;6.88;1.50;;;;;;;;;;5023666;28;20755;-80
2023/03/08 00:52:33;;;;;;;7.20;1.73;;;;;;;;;;5021625;28;20438;-81
2023/03/08 00:55:01;;;;;;;8.15;1.80;;;;;;;;;;5027938;28;20428;-81
2023/03/08 00:57:33;;;;;;;4.90;1.90;;;;;;;;;;5026683;28;20441;-80
2023/03/08 01:00:11;;;;;;;7.15;1.85;;;;;;;;;;5020517;28;20430;-80
2023/03/08 01:02:40;;;;;;;5.85;1.80;;;;;;;;;;5038560;28;20434;-80
2023/03/08 01:05:08;;;;;;;6.28;1.85;;;;;;;;;;5037891;28;20426;-81
2023/03/08 01:07:38;;;;;;;4.97;1.85;;;;;;;;;;5036862;28;20909;-80
2023/03/08 01:10:11;;;;;;;7.38;1.85;;;;;;;;;;5020034;28;20428;-81
2023/03/08 01:12:44;;;;;;;5.35;1.80;;;;;;;;;;5021874;28;20431;-81
2023/03/08 01:15:16;;;;;;;7.60;1.80;;;;;;;;;;5027487;28;20426;-80
2023/03/08 01:17:44;;;;;;;7.40;1.85;;;;;;;;;;5035589;28;20438;-81
2023/03/08 01:20:17;;;;;;;5.38;1.88;;;;;;;;;;5027376;28;20430;-81
2023/03/08 01:22:46;;;;;;;8.67;2.03;;;;;;;;;;5036908;28;20492;-82
2023/03/08 01:25:19;;;;;;;4.65;1.60;;;;;;;;;;5036491;28;20433;-81
2023/03/08 01:27:47;;;;;;;6.35;1.70;;;;;;;;;;5038278;28;20415;-82
2023/03/08 01:30:20;;;;;;;5.13;1.70;;;;;;;;;;5020744;28;20423;-81
2023/03/08 01:32:47;;;;;;;6.68;1.80;;;;;;;;;;5025403;28;21046;-80
2023/03/08 01:35:20;;;;;;;5.80;1.65;;;;;;;;;;5034903;28;20431;-81
2023/03/08 01:37:54;;;;;;;3.57;1.47;;;;;;;;;;5038161;28;20491;-80
2023/03/08 01:40:27;;;;;;;7.55;1.90;;;;;;;;;;5019762;28;20426;-80
2023/03/08 01:43:10;;;;;;;7.43;1.90;;;;;;;;;;5022170;28;20900;-81
2023/03/08 01:46:03;;;;;;;7.55;2.00;;;;;;;;;;5022629;28;20431;-81
2023/03/08 01:48:33;;;;;;;5.15;1.52;;;;;;;;;;5021317;28;20893;-80
2023/03/08 01:51:12;;;;;;;5.93;1.63;;;;;;;;;;5027891;28;20407;-80
2023/03/08 01:53:46;;;;;;;6.97;1.97;;;;;;;;;;5019681;28;20446;-81
2023/03/08 01:56:15;;;;;;;6.68;1.73;;;;;;;;;;5037440;28;20405;-81
2023/03/08 01:58:45;;;;;;;7.85;2.00;;;;;;;;;;5022963;28;20426;-80
2023/03/08 02:01:18;;;;;;;6.45;2.03;;;;;;;;;;5036445;28;20987;-80
2023/03/08 02:03:54;;;;;;;6.57;2.40;;;;;;;;;;5027072;28;20427;-81
2023/03/08 02:06:28;;;;;;;8.10;2.28;;;;;;;;;;5019596;28;20436;-80
2023/03/08 02:08:57;;;;;;;8.70;2.40;;;;;;;;;;5037473;28;20430;-79
2023/03/08 02:11:32;;;;;;;7.53;2.63;;;;;;;;;;5020082;28;20425;-80
2023/03/08 02:14:05;;;;;;;6.13;2.40;;;;;;;;;;5035913;28;20448;-80
2023/03/08 02:16:42;;;;;;;8.27;3.13;;;;;;;;;;5026931;28;20899;-80
2023/03/08 02:19:12;;;;;;;6.95;2.60;;;;;;;;;;5026515;28;20889;-80
2023/03/08 02:21:46;;;;;;;8.75;2.70;;;;;;;;;;5019322;28;20416;-80
2023/03/08 02:24:21;;;;;;;6.55;2.60;;;;;;;;;;5015438;28;20434;-80
2023/03/08 02:26:50;;;;;;;7.20;2.90;;;;;;;;;;5024144;28;20409;-80
2023/03/08 02:29:23;;;;;;;7.07;2.80;;;;;;;;;;5016868;28;20433;-80
2023/03/08 02:31:56;;;;;;;11.23;3.25;;;;;;;;;;5019639;28;20433;-80
2023/03/08 02:34:29;;;;;;;9.75;3.20;;;;;;;;;;5025553;28;20433;-79
2023/03/08 02:37:02;;;;;;;11.30;3.40;;;;;;;;;;5021577;28;20472;-80
2023/03/08 02:39:36;;;;;;;9.35;3.47;;;;;;;;;;5022005;28;20428;-79
2023/03/08 02:42:04;;;;;;;8.02;3.60;;;;;;;;;;5039249;28;20439;-81
2023/03/08 02:44:37;;;;;;;10.82;3.78;;;;;;;;;;5020067;28;20421;-79
2023/03/08 02:47:05;;;;;;;12.20;3.70;;;;;;;;;;5028064;28;20441;-80
2023/03/08 02:49:38;;;;;;;11.37;3.77;;;;;;;;;;5025048;28;20429;-79
2023/03/08 02:52:06;;;;;;;9.43;3.90;;;;;;;;;;5028063;28;20434;-79
2023/03/08 02:54:34;;;;;;;8.85;3.70;;;;;;;;;;5021160;28;20428;-80
2023/03/08 02:57:08;;;;;;;10.98;4.10;;;;;;;;;;5018383;28;20427;-79
2023/03/08 02:59:41;;;;;;;8.52;4.00;;;;;;;;;;5020417;28;20457;-80
2023/03/08 03:02:15;;;;;;;10.23;4.25;;;;;;;;;;5019484;28;20423;-79
2023/03/08 03:04:48;;;;;;;10.23;4.13;;;;;;;;;;5036274;28;20429;-80
2023/03/08 03:07:20;;;;;;;12.23;4.90;;;;;;;;;;5016742;28;20443;-79
2023/03/08 03:09:53;;;;;;;9.50;4.30;;;;;;;;;;5018877;28;20435;-79
2023/03/08 03:12:23;;;;;;;9.20;4.90;;;;;;;;;;5019646;28;20418;-80
2023/03/08 03:14:50;;;;;;;10.05;4.60;;;;;;;;;;5023159;28;20427;-80
2023/03/08 03:17:23;;;;;;;9.80;5.00;;;;;;;;;;5036363;28;20918;-79
2023/03/08 03:19:51;;;;;;;11.43;5.10;;;;;;;;;;5032631;28;20423;-79
2023/03/08 03:22:24;;;;;;;9.52;5.20;;;;;;;;;;5018250;28;20424;-80
2023/03/08 03:24:57;;;;;;;10.73;4.68;;;;;;;;;;5026093;28;20425;-79
2023/03/08 03:27:31;;;;;;;10.73;5.32;;;;;;;;;;5028977;28;21236;-80
2023/03/08 03:29:59;;;;;;;9.45;5.20;;;;;;;;;;5038223;28;20431;-80
2023/03/08 03:32:32;;;;;;;13.63;5.70;;;;;;;;;;5042791;28;20431;-80
2023/03/08 03:35:01;;;;;;;12.63;6.18;;;;;;;;;;5020923;28;20919;-79
2023/03/08 03:37:29;;;;;;;11.50;5.80;;;;;;;;;;5028822;28;20440;-80
2023/03/08 03:40:02;;;;;;;12.80;6.30;;;;;;;;;;5025058;28;20415;-80
2023/03/08 03:42:36;;;;;;;12.75;6.57;;;;;;;;;;5038250;28;20433;-80
2023/03/08 03:45:09;;;;;;;10.07;6.20;;;;;;;;;;5022334;28;20411;-80
2023/03/08 03:47:42;;;;;;;12.20;6.38;;;;;;;;;;5028301;28;20440;-80
2023/03/08 03:50:15;;;;;;;12.68;6.38;;;;;;;;;;5028865;28;20421;-81
2023/03/08 03:53:06;;;;;;;11.50;6.10;;;;;;;;;;5021477;28;20424;-79
2023/03/08 03:55:39;;;;;;;12.33;6.73;;;;;;;;;;5024186;28;20463;-79
2023/03/08 03:58:14;;;;;;;18.90;7.93;;;;;;;;;;5038224;28;20429;-80
2023/03/08 04:00:47;;;;;;;14.70;7.57;;;;;;;;;;5038271;28;20422;-80
2023/03/08 04:03:28;;;;;;;11.77;6.78;;;;;;;;;;5039594;28;20420;-79
2023/03/08 04:06:06;;;;;;;12.40;7.40;;;;;;;;;;5022655;28;20423;-79
2023/03/08 04:08:40;;;;;;;15.80;7.40;;;;;;;;;;5043227;28;20415;-80
2023/03/08 04:11:19;;;;;;;13.48;7.20;;;;;;;;;;5023893;28;20423;-80
2023/03/08 04:13:49;;;;;;;12.55;6.55;;;;;;;;;;5029227;28;20434;-79
2023/03/08 04:16:25;;;;;;;12.65;7.15;;;;;;;;;;5022166;28;20419;-80
2023/03/08 04:19:02;;;;;;;12.80;7.27;;;;;;;;;;5029464;28;20965;-79
2023/03/08 04:21:35;;;;;;;12.00;7.80;;;;;;;;;;5037719;28;20421;-79
2023/03/08 04:24:08;;;;;;;12.35;7.68;;;;;;;;;;5038476;28;20447;-79
2023/03/08 04:26:41;;;;;;;17.17;7.80;;;;;;;;;;5022895;28;20763;-79
2023/03/08 04:29:19;;;;;;;16.70;8.18;;;;;;;;;;5019143;28;20426;-79
2023/03/08 04:31:54;;;;;;;14.03;7.63;;;;;;;;;;5024772;28;20411;-79
2023/03/08 04:34:37;;;;;;;13.37;7.30;;;;;;;;;;5037256;28;20416;-80
2023/03/08 04:37:13;;;;;;;15.77;7.70;;;;;;;;;;5040040;28;20416;-80
2023/03/08 04:39:49;;;;;;;13.63;7.50;;;;;;;;;;5037505;28;20416;-79
2023/03/08 04:42:23;;;;;;;12.32;7.30;;;;;;;;;;5030123;28;20898;-81
2023/03/08 04:44:57;;;;;;;13.80;7.72;;;;;;;;;;5018439;28;20417;-79
2023/03/08 04:47:25;;;;;;;14.68;7.18;;;;;;;;;;5034477;28;20415;-80
2023/03/08 04:49:58;;;;;;;13.93;7.90;;;;;;;;;;5029237;28;20427;-80
2023/03/08 04:52:27;;;;;;;18.83;8.88;;;;;;;;;;5021824;28;20429;-80
2023/03/08 04:54:59;;;;;;;15.25;8.18;;;;;;;;;;5027866;28;20421;-79
2023/03/08 04:57:34;;;;;;;14.15;7.90;;;;;;;;;;5019456;28;20428;-79
2023/03/08 05:00:10;;;;;;;17.47;8.13;;;;;;;;;;5028190;28;20421;-81
2023/03/08 05:02:44;;;;;;;15.00;8.85;;;;;;;;;;5029238;28;20428;-80
2023/03/08 05:05:18;;;;;;;16.38;8.35;;;;;;;;;;5024647;28;20429;-80
2023/03/08 05:07:54;;;;;;;15.13;8.18;;;;;;;;;;5028626;28;20425;-80
2023/03/08 05:10:27;;;;;;;18.38;8.85;;;;;;;;;;5020714;28;20902;-81
2023/03/08 05:13:00;;;;;;;16.33;9.20;;;;;;;;;;5020024;28;20592;-81
2023/03/08 05:15:29;;;;;;;16.33;9.38;;;;;;;;;;5028406;28;20415;-79
2023/03/08 05:18:03;;;;;;;15.55;9.30;;;;;;;;;;5026540;28;20411;-79
2023/03/08 05:20:37;;;;;;;16.53;9.33;;;;;;;;;;5020292;28;20440;-80
2023/03/08 05:23:06;;;;;;;17.48;9.55;;;;;;;;;;5038021;28;20422;-79
2023/03/08 05:25:41;;;;;;;19.55;9.77;;;;;;;;;;5035419;28;20418;-80
2023/03/08 05:28:14;;;;;;;16.38;9.35;;;;;;;;;;5019002;28;20421;-80
2023/03/08 05:30:45;;;;;;;15.55;9.25;;;;;;;;;;5039322;28;20867;-80
2023/03/08 05:33:18;;;;;;;16.10;9.50;;;;;;;;;;5019090;28;20425;-79
2023/03/08 05:35:54;;;;;;;20.52;10.43;;;;;;;;;;5017499;28;20785;-80
2023/03/08 05:38:27;;;;;;;18.13;10.57;;;;;;;;;;5028554;28;20440;-79
2023/03/08 05:40:59;;;;;;;20.55;10.75;;;;;;;;;;5027196;28;20903;-80
2023/03/08 05:43:27;;;;;;;20.20;10.82;;;;;;;;;;5036006;28;20419;-79
2023/03/08 05:46:02;;;;;;;19.67;10.75;;;;;;;;;;5027201;28;20420;-81
2023/03/08 05:48:33;;;;;;;21.35;11.60;;;;;;;;;;5038004;28;20438;-80
2023/03/08 05:51:04;;;;;;;21.42;11.10;;;;;;;;;;5018785;28;20431;-80
2023/03/08 05:53:37;;;;;;;21.05;11.75;;;;;;;;;;5035152;28;20419;-80
2023/03/08 05:56:12;;;;;;;20.88;11.45;;;;;;;;;;5038526;28;20416;-80
2023/03/08 05:59:03;;;;;;;20.60;11.57;;;;;;;;;;5022807;28;21024;-80
2023/03/08 06:01:38;;;;;;;21.58;11.63;;;;;;;;;;5033693;28;20427;-81
2023/03/08 06:04:25;;;;;;;18.70;10.73;;;;;;;;;;5031562;28;20427;-80
2023/03/08 06:06:53;;;;;;;19.02;10.43;;;;;;;;;;5034020;28;20427;-80
2023/03/08 06:09:25;;;;;;;20.83;11.32;;;;;;;;;;5032928;28;20789;-79
2023/03/08 06:11:58;;;;;;;18.93;11.07;;;;;;;;;;5025543;28;20432;-80
2023/03/08 06:14:26;;;;;;;18.55;10.75;;;;;;;;;;5033831;28;20427;-80
2023/03/08 06:16:56;;;;;;;19.27;10.48;;;;;;;;;;5020677;28;20431;-79
2023/03/08 06:19:31;;;;;;;17.30;10.88;;;;;;;;;;5026015;28;20429;-80
2023/03/08 06:22:04;;;;;;;18.33;10.48;;;;;;;;;;5021861;28;20421;-80
2023/03/08 06:24:37;;;;;;;16.92;9.95;;;;;;;;;;5016186;28;20431;-79
2023/03/08 06:27:10;;;;;;;16.65;9.50;;;;;;;;;;5017238;28;20899;-80
2023/03/08 06:29:40;;;;;;;16.02;9.60;;;;;;;;;;5036335;28;20428;-80
2023/03/08 06:32:10;;;;;;;15.80;9.50;;;;;;;;;;5035926;28;20919;-80
2023/03/08 06:34:43;;;;;;;15.23;9.10;;;;;;;;;;5025976;28;20423;-80
2023/03/08 06:37:16;;;;;;;15.80;9.18;;;;;;;;;;5019552;28;20853;-79
2023/03/08 06:39:45;;;;;;;14.85;9.18;;;;;;;;;;5033067;28;20425;-79
2023/03/08 06:42:17;;;;;;;14.95;9.52;;;;;;;;;;5034682;28;20800;-80
2023/03/08 06:44:50;;;;;;;15.40;8.63;;;;;;;;;;5018127;28;20936;-79
2023/03/08 06:47:27;;;;;;;14.02;8.70;;;;;;;;;;5035750;28;20432;-79
2023/03/08 06:50:00;;;;;;;15.48;8.70;;;;;;;;;;5017666;28;20432;-80
2023/03/08 06:52:36;;;;;;;16.90;9.20;;;;;;;;;;5022433;28;20423;-79
2023/03/08 06:55:10;;;;;;;17.05;8.65;;;;;;;;;;5016934;28;20428;-79
2023/03/08 06:57:38;;;;;;;17.23;9.00;;;;;;;;;;5033840;28;20895;-80
2023/03/08 07:00:08;;;;;;;14.65;7.90;;;;;;;;;;5021481;28;20903;-81
2023/03/08 07:02:42;;;;;;;15.15;7.82;;;;;;;;;;5023495;28;21348;-81
2023/03/08 07:05:15;;;;;;;14.40;7.45;;;;;;;;;;5020622;28;20427;-79
2023/03/08 07:07:43;;;;;;;17.10;7.45;;;;;;;;;;5038676;28;20884;-79
2023/03/08 07:10:13;;;;;;;14.25;7.18;;;;;;;;;;5025200;28;20418;-80
2023/03/08 07:12:42;;;;;;;14.95;7.20;;;;;;;;;;5025852;28;20514;-80
2023/03/08 07:15:13;;;;;;;14.43;6.97;;;;;;;;;;5026832;28;20912;-81
2023/03/08 07:17:48;;;;;;;15.33;6.60;;;;;;;;;;5022333;28;20434;-81
2023/03/08 07:20:17;;;;;;;15.30;7.00;;;;;;;;;;5022994;28;20429;-80
2023/03/08 07:22:45;;;;;;;14.87;7.17;;;;;;;;;;5023159;28;20409;-80
2023/03/08 07:25:18;;;;;;;15.60;7.25;;;;;;;;;;5018484;28;20434;-80
2023/03/08 07:27:51;;;;;;;14.75;6.53;;;;;;;;;;5019318;28;20466;-80
2023/03/08 07:30:19;;;;;;;14.38;6.70;;;;;;;;;;5024491;28;20414;-80
2023/03/08 07:32:53;;;;;;;13.00;6.35;;;;;;;;;;5021479;28;20896;-81
2023/03/08 07:35:21;;;;;;;13.20;6.40;;;;;;;;;;5020360;28;20940;-80
2023/03/08 07:37:49;;;;;;;14.32;6.45;;;;;;;;;;5023234;28;20430;-79
2023/03/08 07:40:17;;;;;;;13.85;6.88;;;;;;;;;;5024342;28;20783;-81
2023/03/08 07:42:50;;;;;;;13.45;6.40;;;;;;;;;;5020911;28;20947;-81
2023/03/08 07:45:33;;;;;;;14.70;6.95;;;;;;;;;;5020024;28;20431;-81
2023/03/08 07:48:03;;;;;;;13.68;7.03;;;;;;;;;;5022864;28;20427;-83
2023/03/08 07:50:30;;;;;;;13.10;6.95;;;;;;;;;;5043604;28;20792;-82
2023/03/08 07:53:04;;;;;;;15.93;7.83;;;;;;;;;;5037550;28;20431;-81
2023/03/08 07:55:37;;;;;;;13.95;7.47;;;;;;;;;;5023342;28;20462;-81
2023/03/08 07:58:09;;;;;;;19.25;7.45;;;;;;;;;;5020665;28;20912;-81
2023/03/08 08:00:42;;;;;;;13.40;6.93;;;;;;;;;;5019791;28;20462;-82
2023/03/08 08:03:16;;;;;;;12.38;6.45;;;;;;;;;;5021158;28;20909;-82
2023/03/08 08:05:49;;;;;;;12.13;6.50;;;;;;;;;;5004133;28;20424;-83
2023/03/08 08:08:22;;;;;;;12.82;6.35;;;;;;;;;;4999966;28;20451;-82
2023/03/08 08:10:49;;;;;;;14.20;7.15;;;;;;;;;;4999789;28;20423;-81
2023/03/08 08:13:22;;;;;;;11.95;6.85;;;;;;;;;;5040979;28;20765;-81
2023/03/08 08:15:59;;;;;;;13.95;6.85;;;;;;;;;;5024583;28;20452;-82
2023/03/08 08:18:28;;;;;;;13.73;7.10;;;;;;;;;;5044054;28;20458;-81
2023/03/08 08:21:02;;;;;;;13.93;7.15;;;;;;;;;;5023650;28;20779;-81
2023/03/08 08:23:29;;;;;;;13.93;6.70;;;;;;;;;;5037322;28;20436;-80
2023/03/08 08:26:04;;;;;;;15.05;6.82;;;;;;;;;;5024717;28;20438;-81
2023/03/08 08:28:38;;;;;;;14.68;7.15;;;;;;;;;;5020607;28;20435;-82
2023/03/08 08:31:13;;;;;;;16.75;7.00;;;;;;;;;;5029195;28;20430;-83
2023/03/08 08:33:42;;;;;;;15.70;7.93;;;;;;;;;;5023351;28;20427;-80
2023/03/08 08:36:12;;;;;;;15.35;7.35;;;;;;;;;;5033489;28;20427;-81
2023/03/08 08:38:45;;;;;;;16.15;7.57;;;;;;;;;;5040105;28;20900;-81
2023/03/08 08:41:14;;;;;;;13.93;7.30;;;;;;;;;;5028475;28;20419;-81
2023/03/08 08:43:48;;;;;;;17.55;8.90;;;;;;;;;;5028318;28;20424;-80
2023/03/08 08:46:16;;;;;;;15.43;8.23;;;;;;;;;;5036297;28;20435;-81
2023/03/08 08:48:50;;;;;;;16.13;8.15;;;;;;;;;;5022758;28;20435;-80
2023/03/08 08:51:23;;;;;;;14.52;7.38;;;;;;;;;;5035429;28;20426;-81
2023/03/08 08:53:55;;;;;;;16.48;7.70;;;;;;;;;;5026483;28;20496;-80
2023/03/08 08:56:29;;;;;;;14.27;7.53;;;;;;;;;;5035992;28;20434;-82
2023/03/08 08:59:02;;;;;;;13.73;7.78;;;;;;;;;;5027833;28;20436;-82
2023/03/08 09:01:31;;;;;;;14.55;6.85;;;;;;;;;;5024695;28;20439;-82
2023/03/08 09:04:05;;;;;;;13.98;7.63;;;;;;;;;;5037656;28;20420;-82
2023/03/08 09:06:33;;;;;;;15.20;7.50;;;;;;;;;;5039492;28;20462;-81
2023/03/08 09:09:06;;;;;;;13.25;7.18;;;;;;;;;;5034815;28;20434;-81
2023/03/08 09:11:39;;;;;;;14.80;7.80;;;;;;;;;;5016447;28;20432;-82
2023/03/08 09:14:07;;;;;;;13.52;7.30;;;;;;;;;;5019829;28;20807;-82
2023/03/08 09:16:39;;;;;;;13.65;7.68;;;;;;;;;;5019990;28;20436;-81
2023/03/08 09:19:14;;;;;;;14.93;7.47;;;;;;;;;;5009434;28;20489;-81
2023/03/08 09:21:47;;;;;;;16.42;6.80;;;;;;;;;;5030257;28;20425;-83
2023/03/08 09:24:19;;;;;;;13.23;6.47;;;;;;;;;;5003036;28;20477;-82
2023/03/08 09:26:47;;;;;;;16.67;6.97;;;;;;;;;;5013139;28;20439;-82
2023/03/08 09:29:20;;;;;;;11.77;5.93;;;;;;;;;;4995795;28;20443;-82
2023/03/08 09:31:53;;;;;;;13.02;6.22;;;;;;;;;;5003800;28;20428;-81
2023/03/08 09:34:27;;;;;;;11.77;6.00;;;;;;;;;;4995862;28;20437;-82
2023/03/08 09:36:55;;;;;;;11.48;5.93;;;;;;;;;;4998819;28;20454;-81
2023/03/08 09:39:28;;;;;;;12.07;5.97;;;;;;;;;;4999457;28;20933;-82
2023/03/08 09:41:56;;;;;;;11.50;5.65;;;;;;;;;;4990862;28;20431;-81
2023/03/08 09:44:44;;;;;;;10.38;5.13;;;;;;;;;;4989120;28;21109;-81
2023/03/08 09:47:22;;;;;;;12.02;5.20;;;;;;;;;;4991951;28;20439;-82
2023/03/08 09:49:53;;;;;;;12.87;5.00;;;;;;;;;;4994678;28;20496;-82
2023/03/08 09:52:29;;;;;;;9.98;5.20;;;;;;;;;;4999883;28;20453;-82
2023/03/08 09:55:03;;;;;;;12.67;5.03;;;;;;;;;;5016859;28;21823;-82
2023/03/08 09:57:39;;;;;;;10.57;5.00;;;;;;;;;;4989157;28;20427;-82
2023/03/08 10:00:10;;;;;;;9.55;4.97;;;;;;;;;;4995257;28;21513;-83
2023/03/08 10:02:48;;;;;;;9.15;4.85;;;;;;;;;;5016123;28;20429;-83
2023/03/08 10:05:24;;;;;;;10.00;5.28;;;;;;;;;;5018934;28;20440;-82
2023/03/08 10:07:56;;;;;;;12.57;6.70;;;;;;;;;;4994881;28;21090;-82
2023/03/08 10:10:33;;;;;;;15.18;7.72;;;;;;;;;;5007124;28;21218;-83
2023/03/08 10:13:09;;;;;;;11.05;5.90;;;;;;;;;;5018786;28;20438;-82
2023/03/08 10:15:44;;;;;;;10.00;5.77;;;;;;;;;;5002244;28;21227;-83
2023/03/08 10:18:20;;;;;;;24.08;15.95;;;;;;;;;;4999044;28;20928;-83
2023/03/08 10:20:55;;;;;;;22.50;14.30;;;;;;;;;;4998656;28;20436;-82
2023/03/08 10:23:29;;;;;;;15.85;9.13;;;;;;;;;;4995855;28;20899;-81
2023/03/08 10:26:02;;;;;;;11.43;5.38;;;;;;;;;;5012568;28;20454;-83
2023/03/08 10:28:35;;;;;;;11.75;4.82;;;;;;;;;;5010976;28;21105;-82
2023/03/08 10:31:18;;;;;;;13.25;5.55;;;;;;;;;;5006738;28;20428;-82
2023/03/08 10:33:54;;;;;;;10.53;4.27;;;;;;;;;;4999869;28;21199;-81
2023/03/08 10:36:24;;;;;;;9.27;4.10;;;;;;;;;;4995593;28;22289;-82
2023/03/08 10:38:58;;;;;;;7.83;4.23;;;;;;;;;;4991885;28;20433;-83
2023/03/08 10:41:27;;;;;;;10.68;5.50;;;;;;;;;;5000484;28;20432;-82
2023/03/08 10:44:00;;;;;;;9.43;4.75;;;;;;;;;;4992802;28;20427;-83
2023/03/08 10:46:29;;;;;;;8.95;4.05;;;;;;;;;;5002906;28;20432;-82
2023/03/08 10:49:06;;;;;;;8.10;4.05;;;;;;;;;;4991625;28;20414;-81
2023/03/08 10:51:40;;;;;;;8.45;4.10;;;;;;;;;;4993239;28;20433;-82
2023/03/08 10:54:15;;;;;;;10.05;4.43;;;;;;;;;;4989900;28;20434;-82
2023/03/08 10:56:51;;;;;;;9.90;3.78;;;;;;;;;;5006878;28;20427;-82
2023/03/08 10:59:31;;;;;;;8.55;3.80;;;;;;;;;;4995669;28;20431;-82
2023/03/08 11:02:00;;;;;;;8.10;4.03;;;;;;;;;;5019631;28;20429;-82
2023/03/08 11:04:32;;;;;;;8.55;3.88;;;;;;;;;;4994253;28;20442;-82
2023/03/08 11:07:11;;;;;;;8.68;4.05;;;;;;;;;;4988760;28;20442;-83
2023/03/08 11:09:39;;;;;;;10.70;3.70;;;;;;;;;;4991972;28;20913;-82
2023/03/08 11:12:21;;;;;;;8.93;3.90;;;;;;;;;;4996749;28;20799;-83
2023/03/08 11:14:49;;;;;;;8.27;3.40;;;;;;;;;;4998044;28;20410;-83
2023/03/08 11:17:26;;;;;;;10.60;3.80;;;;;;;;;;5016262;28;20433;-83
2023/03/08 11:20:09;;;;;;;8.95;3.30;;;;;;;;;;4991278;28;21261;-83
2023/03/08 11:22:49;;;;;;;7.90;3.60;;;;;;;;;;4993289;28;21158;-82
2023/03/08 11:25:38;;;;;;;8.23;3.10;;;;;;;;;;4996678;28;20821;-84
2023/03/08 11:28:18;;;;;;;6.15;3.15;;;;;;;;;;4991555;28;20444;-82
2023/03/08 11:30:53;;;;;;;7.53;3.45;;;;;;;;;;4998412;28;21876;-82
2023/03/08 11:33:29;;;;;;;9.93;3.20;;;;;;;;;;4994434;28;20447;-82
2023/03/08 11:36:05;;;;;;;9.32;3.05;;;;;;;;;;5010787;28;20775;-83
2023/03/08 11:38:39;;;;;;;7.25;3.10;;;;;;;;;;5016564;28;20426;-82
2023/03/08 11:41:18;;;;;;;7.10;3.17;;;;;;;;;;4995039;28;20438;-82
2023/03/08 11:43:57;;;;;;;7.72;3.00;;;;;;;;;;4999149;28;20419;-83
2023/03/08 11:46:47;;;;;;;9.15;3.40;;;;;;;;;;4999624;28;20427;-82
2023/03/08 11:49:28;;;;;;;6.88;2.97;;;;;;;;;;5001963;28;21006;-83
2023/03/08 11:51:59;;;;;;;5.13;2.60;;;;;;;;;;5002090;28;21574;-83
2023/03/08 11:54:37;;;;;;;6.77;2.70;;;;;;;;;;5023472;28;20428;-84
2023/03/08 11:57:10;;;;;;;5.88;2.53;;;;;;;;;;5005621;28;20433;-82
2023/03/08 11:59:45;;;;;;;7.22;2.80;;;;;;;;;;5023197;28;20437;-82
2023/03/08 12:02:20;;;;;;;6.20;2.90;;;;;;;;;;5000543;28;21222;-82
2023/03/08 12:04:57;;;;;;;7.45;3.05;;;;;;;;;;5019058;28;20430;-82
2023/03/08 12:07:28;;;;;;;5.75;2.95;;;;;;;;;;4995764;28;20439;-82
2023/03/08 12:10:04;;;;;;;7.72;3.13;;;;;;;;;;4995868;28;20937;-82
2023/03/08 12:12:34;;;;;;;7.05;3.20;;;;;;;;;;4995125;28;20415;-82
2023/03/08 12:15:13;;;;;;;8.05;3.40;;;;;;;;;;4996479;28;20436;-83
2023/03/08 12:17:49;;;;;;;9.60;4.47;;;;;;;;;;4991379;28;20432;-83
2023/03/08 12:20:22;;;;;;;9.70;4.30;;;;;;;;;;4986445;28;20424;-81
2023/03/08 12:23:00;;;;;;;9.07;3.92;;;;;;;;;;4988724;28;20951;-82
2023/03/08 12:25:30;;;;;;;9.13;3.23;;;;;;;;;;4989091;28;20483;-82
2023/03/08 12:28:04;;;;;;;9.32;2.95;;;;;;;;;;4983274;28;20429;-82
2023/03/08 12:30:41;;;;;;;5.93;2.95;;;;;;;;;;4986797;28;20417;-82
2023/03/08 12:33:15;;;;;;;9.73;3.70;;;;;;;;;;4988711;28;20459;-82
2023/03/08 12:35:51;;;;;;;11.73;3.65;;;;;;;;;;4992247;28;20444;-82
2023/03/08 12:38:33;;;;;;;10.70;4.28;;;;;;;;;;4986411;28;20417;-82
2023/03/08 12:41:20;;;;;;;8.02;2.90;;;;;;;;;;4986455;28;20424;-81
2023/03/08 12:44:00;;;;;;;6.30;2.70;;;;;;;;;;4984245;28;20909;-82
2023/03/08 12:46:52;;;;;;;8.43;3.13;;;;;;;;;;4989952;28;20443;-82
2023/03/08 12:49:26;;;;;;;7.60;3.20;;;;;;;;;;4998060;28;20939;-80
2023/03/08 12:52:01;;;;;;;7.20;3.03;;;;;;;;;;4991532;28;20444;-80
2023/03/08 12:54:35;;;;;;;7.82;3.13;;;;;;;;;;4984326;28;20423;-81
2023/03/08 12:57:19;;;;;;;5.75;2.63;;;;;;;;;;4982389;28;21157;-81
2023/03/08 12:59:56;;;;;;;5.70;2.83;;;;;;;;;;4979387;28;20435;-82
2023/03/08 13:02:30;;;;;;;6.88;3.33;;;;;;;;;;4979533;28;20448;-81
2023/03/08 13:05:04;;;;;;;7.53;3.17;;;;;;;;;;4987253;28;20424;-81
2023/03/08 13:07:39;;;;;;;6.95;3.03;;;;;;;;;;4987084;28;20429;-81
2023/03/08 13:10:19;;;;;;;8.13;3.00;;;;;;;;;;4987370;28;20447;-82
2023/03/08 13:13:14;;;;;;;7.25;2.80;;;;;;;;;;4999127;28;20506;-82
2023/03/08 13:15:46;;;;;;;8.40;2.87;;;;;;;;;;4986834;28;20456;-81
2023/03/08 13:18:19;;;;;;;6.68;2.80;;;;;;;;;;4990505;28;20439;-81
2023/03/08 13:20:59;;;;;;;6.93;2.80;;;;;;;;;;4974742;28;20432;-81
2023/03/08 13:23:35;;;;;;;7.90;3.05;;;;;;;;;;4976207;28;20430;-81
2023/03/08 13:26:16;;;;;;;7.07;2.90;;;;;;;;;;4976424;28;20917;-80
2023/03/08 13:28:46;;;;;;;7.70;2.80;;;;;;;;;;4979439;28;20434;-81
2023/03/08 13:31:20;;;;;;;7.30;3.00;;;;;;;;;;4996972;28;20505;-81
2023/03/08 13:33:49;;;;;;;7.28;2.72;;;;;;;;;;4972489;28;20428;-82
2023/03/08 13:36:22;;;;;;;5.38;2.63;;;;;;;;;;4968929;28;20475;-81
2023/03/08 13:38:57;;;;;;;6.75;2.70;;;;;;;;;;4975670;28;20434;-81
2023/03/08 13:41:33;;;;;;;5.17;2.60;;;;;;;;;;4978884;28;20438;-81
2023/03/08 13:44:03;;;;;;;6.55;2.42;;;;;;;;;;4976504;28;20443;-82
2023/03/08 13:46:38;;;;;;;8.90;2.67;;;;;;;;;;4971696;28;20464;-81
2023/03/08 13:49:16;;;;;;;6.13;2.65;;;;;;;;;;4979295;28;20432;-81
2023/03/08 13:51:47;;;;;;;5.55;2.30;;;;;;;;;;4984582;28;20432;-81
2023/03/08 13:54:28;;;;;;;5.05;2.50;;;;;;;;;;4969932;28;20436;-81
2023/03/08 13:57:01;;;;;;;6.45;2.75;;;;;;;;;;4975156;28;20438;-81
2023/03/08 13:59:33;;;;;;;5.15;2.40;;;;;;;;;;4974273;28;20432;-82
2023/03/08 14:02:01;;;;;;;5.72;2.42;;;;;;;;;;4972591;28;20436;-81
2023/03/08 14:04:29;;;;;;;6.75;2.60;;;;;;;;;;4970142;28;20430;-81
2023/03/08 14:07:04;;;;;;;4.95;2.55;;;;;;;;;;4977234;28;20424;-82
2023/03/08 14:09:37;;;;;;;5.68;2.65;;;;;;;;;;4973352;28;20412;-81
2023/03/08 14:12:15;;;;;;;7.05;2.80;;;;;;;;;;4980288;28;21001;-81
2023/03/08 14:14:52;;;;;;;4.67;2.30;;;;;;;;;;4973500;28;20972;-82
2023/03/08 14:17:21;;;;;;;5.57;2.60;;;;;;;;;;4974570;28;20440;-82
2023/03/08 14:19:52;;;;;;;5.53;2.20;;;;;;;;;;4948722;28;20450;-81
2023/03/08 14:22:21;;;;;;;5.90;2.20;;;;;;;;;;4981354;28;20431;-82
2023/03/08 14:24:55;;;;;;;6.53;2.47;;;;;;;;;;4975477;28;20444;-81
2023/03/08 14:27:31;;;;;;;5.05;2.10;;;;;;;;;;4984750;28;20447;-80
2023/03/08 14:30:10;;;;;;;5.38;2.30;;;;;;;;;;4974527;28;20437;-82
2023/03/08 14:32:38;;;;;;;6.43;2.33;;;;;;;;;;5002308;28;21045;-81
2023/03/08 14:35:09;;;;;;;4.00;2.22;;;;;;;;;;4977016;28;21281;-81
2023/03/08 14:37:43;;;;;;;5.18;2.38;;;;;;;;;;4982645;28;20433;-84
2023/03/08 14:40:22;;;;;;;5.70;2.20;;;;;;;;;;4985388;28;21176;-82
2023/03/08 14:42:51;;;;;;;5.03;2.20;;;;;;;;;;4980069;28;20903;-83
2023/03/08 14:45:27;;;;;;;5.28;2.28;;;;;;;;;;4987514;28;20430;-83
2023/03/08 14:48:01;;;;;;;4.72;2.20;;;;;;;;;;4983909;28;20436;-82
2023/03/08 14:50:30;;;;;;;4.95;2.30;;;;;;;;;;4983682;28;20425;-83
2023/03/08 14:53:03;;;;;;;4.85;2.15;;;;;;;;;;4985721;28;21731;-83
2023/03/08 14:55:32;;;;;;;4.73;2.13;;;;;;;;;;4984769;28;20437;-85
2023/03/08 14:58:00;;;;;;;6.07;1.90;;;;;;;;;;4982043;28;21249;-85
2023/03/08 15:00:30;;;;;;;6.70;2.08;;;;;;;;;;4978430;28;20441;-84
2023/03/08 15:03:03;;;;;;;4.77;2.03;;;;;;;;;;4981065;28;20475;-82
2023/03/08 15:05:38;;;;;;;5.22;1.95;;;;;;;;;;4978452;28;20435;-83
2023/03/08 15:08:07;;;;;;;4.72;2.00;;;;;;;;;;4975994;28;20436;-83
2023/03/08 15:10:40;;;;;;;5.53;2.13;;;;;;;;;;4977011;28;20438;-82
2023/03/08 15:13:12;;;;;;;6.35;2.00;;;;;;;;;;4978497;28;20453;-82